Harstad/Narvik

Airport
ICAO code: 
ENEV
Summary
ICAO Region: 
EUR
Territory: 
Location: 
Evenes, Norway,
Serving: 
Harstad/Narvik
Coordinates: 
Aerial View: 
68° 29' 18" N, 16° 40' 42" E
Airport WX: 
Low Level Turbulence
Metar
Observation
ENEV 020650Z 01011KT 340V050 9999 FEW032 BKN055 M01/M06 Q1002 RMK WIND 1400FT 04024KT
Station
Evenes
Date/Time
2021-12-02 06:50:00
Wind direction
10°
Wind speed
11 kts
Lowest cloud amount
few clouds
Temperature
-1°C
Dew point
-6°C
Humidity
68%
QNH
1002 hPa
Weather condition
n/a

Description

International airport at Evenes which serves the towns of Harstad and Narvik, northern Norway.

Climatology

Subpolar Oceanic climate (Köppen climate classification Cfc) - uniform precipitation distribution, temperatures are moderated by the proximity of the ocean and warm currents - cool summers and comparatively mild winters.

Runways

Designator Length Width Surface Rops
17/35 2815 45 ASP Yes/Yes
Airport map: 
Aerial View: 

Accidents and Serious Incidents at or in the vicinity of ENEV

SKYbrary Partners:

Safety knowledge contributed by: